My Meet Scores
Sheyanne Tipsord, Phenom Gymnastics - MyMeetScores.com
Top100 | Top Teams | Upcoming Meets | Completed Meets | Latest | Add Scores | Help| Support | Bookmark and Share

Sheyanne Tipsord, Phenom Gymnastics
Personal Bests
LevelVault BarsBeamFloorAA
48.8759.125 9.6009.15036.075
59.2509.275 9.2509.27536.775
79.4759.150 9.2259.32536.575
89.3509.225 9.2009.02536.375
AllLevels8.7258.850 9.3758.85035.800
Meet Scores
Date Meet Team Session Level Division Vault Bars Beam Floor AA
2018-02-23 Kinetic Classic Phenom Gymnastics 2 8 Younger 9.350 3 8.400 31 8.500 28 9.025 24T 35.275 21
2018-02-16 2018 Magical Classic Phenom Gymnastics A2 8 Group 3 9.100 3 8.975 8 8.650 9T 8.950 10T 35.675 6
2018-01-19 2018 Bravo Classic Phenom Gymnastics 5A 8 Jr 9.200 2T 9.225 7 9.200 7 8.750 13 36.375 5
2018-01-12 St Jude Benefit Meet Phenom Gymnastics 3B 8 SrA 9.000 5 7.900 13 8.700 10 8.800 8T 34.400 11
2017-03-23 2017 Illinois Level 6, 7 State Championship Phenom Gymnastics 3 7 Sr A 9.475 9 8.550 24 9.225 17 9.325 17 36.575 16T
2017-03-10 Lucky Invitational Phenom Gymnastics A06 7 Sr A 9.175 7T 9.050 10 9.000 13 9.250 14T 36.475 11
2017-02-17 Big Classic Phenom Gymnastics A 7 Junior A 8.750 26 9.050 15 8.875 14T 9.150 22 35.825 19
2016-12-16 2016 Aspire Classic Phenom Gymnastics 1 7 Older 9.150 11 9.150 9T 9.050 7 9.000 16T 36.350 9
2016-04-22 2016 Illinois Level 5 And Xcel State Championships Energym Gymnastics 3 5 Jr D 9.250 5T 9.225 5 9.025 8 9.275 6 36.775 4T
2016-02-20 Big Classic Energym Gymnastics 11B 5 Child B 9.250 7T 9.125 4 9.250 4T 9.075 7 36.700 4
2016-02-05 St. Valentines Classic Energym Gymnastics 4A AllLevels All Ages 8.725 17 8.850 11 9.375 5T 8.850 18T 35.800 8
2016-01-15 2016 Bravo Classic Energym Gymnastics 1A 5 11+yrs 8.550 17 8.975 5 8.750 15T 8.800 12T 35.075 11
2016-01-08 St Jude Benefit Meet Energym Gymnastics 2A 5 Junior 8.750 5 9.125 1 8.950 4 9.050 5T 35.875 3
2015-12-18 2015 Aspire Classic Energym Gymnastics 12 5 Older 8.675 14 9.275 2 8.750 13 9.150 7T 35.850 8
2015-12-11 St. Nick Invite Energym Gymnastics 6B 5 Junior 8.325 13 8.600 9T 8.625 9 9.150 10 34.700 12
2015-03-19 2015 Illinois Level 4 State Championship Energym Gymnastics All 4 Jr.C 8.800 15 9.125 8 9.000 18 9.150 11 36.075 13
2015-03-13 2015 Lucky Invite Energym Gymnastics B6 4 Sr.A 8.250 8 8.950 3T 9.050 7T 8.950 8 35.200 8
2015-02-21 BIG Classic Energym Gymnastics 4A 4 Child C 8.800 3T 9.000 6 9.600 1 8.350 11T 35.750 6
2014-10-25 Twist And Turn Energym Gymnastics 6 4 Jr 8.875 5 9.025 5 8.350 18 9.150 12 35.400 10
2014-03-13 2014 Illinois Level 4 State Meet Energym Gymnastics 4 Jr.A 8.200 32 7.150 32 8.450 28 8.850 30 32.650 32
2014-03-07 LGA Lucky Invite Energym Gymnastics B5 4 Jr B 7.300 12 7.900 12 7.700 11 8.275 10 31.175 12

www.lazysuits.com